createdAt,value
2022-12-07T00:00:55.928Z,4.16
2022-12-07T00:03:23.348Z,4.11
2022-12-07T00:05:50.694Z,4.06
2022-12-07T00:08:19.396Z,4.04
2022-12-07T00:10:46.648Z,4.01
2022-12-07T00:13:14.455Z,4.01
2022-12-07T00:15:42.031Z,4.03
2022-12-07T00:18:09.325Z,3.99
2022-12-07T00:20:36.746Z,3.97
2022-12-07T00:23:04.108Z,3.98
2022-12-07T00:25:32.706Z,3.97
2022-12-07T00:27:59.996Z,3.97
2022-12-07T00:30:27.308Z,3.91
2022-12-07T00:32:54.665Z,3.90
2022-12-07T00:35:21.950Z,3.92
2022-12-07T00:37:49.314Z,3.99
2022-12-07T00:40:16.799Z,4.01
2022-12-07T00:42:45.544Z,4.04
2022-12-07T00:45:12.749Z,4.05
2022-12-07T00:47:40.078Z,4.08
2022-12-07T00:50:08.127Z,4.04
2022-12-07T00:52:35.413Z,4.02
2022-12-07T00:55:02.951Z,3.95
2022-12-07T00:57:31.491Z,3.91
2022-12-07T01:00:00.376Z,3.91
2022-12-07T01:02:27.898Z,3.92
2022-12-07T01:04:55.171Z,3.85
2022-12-07T01:07:22.541Z,3.86
2022-12-07T01:09:49.796Z,3.86
2022-12-07T01:12:17.216Z,3.88
2022-12-07T01:14:44.475Z,3.86
2022-12-07T01:17:13.209Z,3.86
2022-12-07T01:19:40.613Z,3.88
2022-12-07T01:22:07.914Z,3.96
2022-12-07T01:24:35.196Z,3.99
2022-12-07T01:27:02.566Z,4.00
2022-12-07T01:29:29.822Z,3.96
2022-12-07T01:31:57.118Z,3.98
2022-12-07T01:34:25.773Z,3.95
2022-12-07T01:36:53.046Z,3.89
2022-12-07T01:39:20.395Z,3.87
2022-12-07T01:41:47.817Z,3.92
2022-12-07T01:44:19.074Z,3.88
2022-12-07T01:46:47.379Z,3.84
2022-12-07T01:49:21.941Z,3.82
2022-12-07T01:51:55.676Z,3.72
2022-12-07T01:54:23.516Z,3.72
2022-12-07T01:56:53.026Z,3.66
2022-12-07T01:59:23.737Z,3.63
2022-12-07T02:01:51.314Z,3.63
2022-12-07T02:04:19.190Z,3.56
2022-12-07T02:06:47.746Z,3.55
2022-12-07T02:09:16.530Z,3.61
2022-12-07T02:11:43.885Z,3.62
2022-12-07T02:14:11.282Z,3.62
2022-12-07T02:16:48.134Z,3.59
2022-12-07T02:19:57.436Z,3.56
2022-12-07T02:22:43.423Z,3.52
2022-12-07T02:25:24.751Z,3.52
2022-12-07T02:27:59.923Z,3.52
2022-12-07T02:30:33.845Z,3.44
2022-12-07T02:33:06.217Z,3.47
2022-12-07T02:35:40.416Z,3.46
2022-12-07T02:38:15.527Z,3.46
2022-12-07T02:40:48.961Z,3.46
2022-12-07T02:43:20.520Z,3.45
2022-12-07T02:45:52.582Z,3.45
2022-12-07T02:48:21.584Z,3.47
2022-12-07T02:50:51.367Z,3.53
2022-12-07T02:53:33.152Z,3.50
2022-12-07T02:56:04.033Z,3.57
2022-12-07T02:58:43.266Z,3.56
2022-12-07T03:01:22.890Z,3.65
2022-12-07T03:04:03.448Z,3.65
2022-12-07T03:06:35.720Z,3.70
2022-12-07T03:09:14.528Z,3.69
2022-12-07T03:11:47.387Z,3.62
2022-12-07T03:14:20.282Z,3.64
2022-12-07T03:16:53.418Z,3.62
2022-12-07T03:19:23.989Z,3.62
2022-12-07T03:21:56.641Z,3.65
2022-12-07T03:24:28.832Z,3.66
2022-12-07T03:27:03.613Z,3.73
2022-12-07T03:29:35.246Z,3.73
2022-12-07T03:32:07.955Z,3.75
2022-12-07T03:34:42.440Z,3.75
2022-12-07T03:37:18.663Z,3.74
2022-12-07T03:39:53.560Z,3.82
2022-12-07T03:42:20.874Z,3.90
2022-12-07T03:44:48.767Z,3.92
2022-12-07T03:47:27.077Z,3.89
2022-12-07T03:50:00.417Z,3.92
2022-12-07T03:52:34.784Z,3.94
2022-12-07T03:55:09.875Z,3.86
2022-12-07T03:57:39.531Z,3.84
2022-12-07T04:00:08.979Z,3.81
2022-12-07T04:02:44.175Z,3.76
2022-12-07T04:05:12.317Z,3.71
2022-12-07T04:07:39.648Z,3.66
2022-12-07T04:10:08.233Z,3.62
2022-12-07T04:12:35.528Z,3.59
2022-12-07T04:15:03.441Z,3.57
2022-12-07T04:17:30.901Z,3.47
2022-12-07T04:19:59.708Z,3.48
2022-12-07T04:22:27.198Z,3.46
2022-12-07T04:24:54.519Z,3.48
2022-12-07T04:27:21.882Z,3.50
2022-12-07T04:29:49.201Z,3.50
2022-12-07T04:32:16.515Z,3.48
2022-12-07T04:34:43.843Z,3.51
2022-12-07T04:37:12.517Z,3.46
2022-12-07T04:39:39.899Z,3.48
2022-12-07T04:42:07.183Z,3.46
2022-12-07T04:44:34.623Z,3.43
2022-12-07T04:47:02.011Z,3.44
2022-12-07T04:49:29.400Z,3.46
2022-12-07T04:51:56.702Z,3.50
2022-12-07T04:54:25.434Z,3.46
2022-12-07T04:56:52.684Z,3.48
2022-12-07T04:59:19.918Z,3.48
2022-12-07T05:01:47.280Z,3.46
2022-12-07T05:04:14.631Z,3.42
2022-12-07T05:06:41.893Z,3.46
2022-12-07T05:09:09.415Z,3.44
2022-12-07T05:11:37.996Z,3.43
2022-12-07T05:14:07.684Z,3.41
2022-12-07T05:16:35.205Z,3.34
2022-12-07T05:19:02.813Z,3.27
2022-12-07T05:21:30.180Z,3.19
2022-12-07T05:23:57.624Z,3.13
2022-12-07T05:26:24.972Z,3.14
2022-12-07T05:28:54.919Z,3.08
2022-12-07T05:31:23.289Z,3.10
2022-12-07T05:33:50.617Z,3.12
2022-12-07T05:36:17.905Z,3.15
2022-12-07T05:38:45.234Z,3.11
2022-12-07T05:41:15.528Z,3.10
2022-12-07T05:43:42.889Z,3.08
2022-12-07T05:46:11.600Z,3.08
2022-12-07T05:48:38.885Z,3.06
2022-12-07T05:51:06.111Z,3.09
2022-12-07T05:53:33.380Z,3.05
2022-12-07T05:56:00.619Z,3.04
2022-12-07T05:58:27.934Z,3.05
2022-12-07T06:00:55.379Z,3.02
2022-12-07T06:03:24.235Z,3.03
2022-12-07T06:05:53.441Z,3.06
2022-12-07T06:08:20.956Z,3.16
2022-12-07T06:10:48.995Z,3.17
2022-12-07T06:13:16.339Z,3.19
2022-12-07T06:15:43.703Z,3.24
2022-12-07T06:18:10.996Z,3.27
2022-12-07T06:20:39.569Z,3.31
2022-12-07T06:23:06.870Z,3.35
2022-12-07T06:25:34.151Z,3.32
2022-12-07T06:28:01.389Z,3.30
2022-12-07T06:30:28.642Z,3.34
2022-12-07T06:32:56.129Z,3.34
2022-12-07T06:35:23.358Z,3.34
2022-12-07T06:37:52.016Z,3.37
2022-12-07T06:40:19.364Z,3.36
2022-12-07T06:42:46.668Z,3.40
2022-12-07T06:45:14.104Z,3.32
2022-12-07T06:47:42.460Z,3.28
2022-12-07T06:50:11.381Z,3.27
2022-12-07T06:52:38.671Z,3.23
2022-12-07T06:55:08.260Z,3.20
2022-12-07T06:57:35.531Z,3.23
2022-12-07T07:00:04.895Z,3.15
2022-12-07T07:02:32.631Z,3.17
2022-12-07T07:04:59.928Z,3.24
2022-12-07T07:07:27.278Z,3.31
2022-12-07T07:09:54.542Z,3.20
2022-12-07T07:12:23.374Z,3.16
2022-12-07T07:14:50.604Z,3.16
2022-12-07T07:17:17.871Z,3.20
2022-12-07T07:19:45.138Z,3.17
2022-12-07T07:22:12.480Z,3.15
2022-12-07T07:24:39.757Z,3.15
2022-12-07T07:27:07.162Z,3.20
2022-12-07T07:29:35.935Z,3.16
2022-12-07T07:32:06.654Z,3.10
2022-12-07T07:34:34.608Z,3.08
2022-12-07T07:37:01.947Z,3.06
2022-12-07T07:39:29.262Z,3.04
2022-12-07T07:41:56.523Z,3.04
2022-12-07T07:44:31.725Z,3.04
2022-12-07T07:47:04.310Z,3.03
2022-12-07T07:49:31.654Z,3.07
2022-12-07T07:51:59.072Z,3.09
2022-12-07T07:54:26.717Z,3.10
2022-12-07T07:56:54.587Z,3.17
2022-12-07T07:59:21.769Z,3.21
2022-12-07T08:01:49.069Z,3.19
2022-12-07T08:04:17.884Z,3.24
2022-12-07T08:06:45.191Z,3.23
2022-12-07T08:09:13.284Z,3.18
2022-12-07T08:11:40.655Z,3.14
2022-12-07T08:14:07.991Z,3.17
2022-12-07T08:16:35.397Z,3.18
2022-12-07T08:19:02.670Z,3.21
2022-12-07T08:21:31.362Z,3.21
2022-12-07T08:23:58.671Z,3.22
2022-12-07T08:26:26.056Z,3.24
2022-12-07T08:28:53.968Z,3.23
2022-12-07T08:31:21.448Z,3.31
2022-12-07T08:33:49.131Z,3.23
2022-12-07T08:36:17.720Z,3.28
2022-12-07T08:39:07.847Z,3.36
2022-12-07T08:41:34.198Z,3.39
2022-12-07T08:44:01.529Z,3.41
2022-12-07T08:46:33.625Z,3.40
2022-12-07T08:49:05.480Z,3.42
2022-12-07T08:51:33.278Z,3.44
2022-12-07T08:54:05.002Z,3.53
2022-12-07T08:56:32.486Z,3.51
2022-12-07T08:58:59.865Z,3.63
2022-12-07T09:01:27.302Z,3.64
2022-12-07T09:03:54.674Z,3.66
2022-12-07T09:06:22.300Z,3.64
2022-12-07T09:08:56.175Z,3.70
2022-12-07T09:11:28.638Z,3.64
2022-12-07T09:13:56.773Z,3.67
2022-12-07T09:16:24.215Z,3.70
2022-12-07T09:18:51.666Z,3.66
2022-12-07T09:21:18.990Z,3.66
2022-12-07T09:23:46.297Z,3.64
2022-12-07T09:26:13.623Z,3.68
2022-12-07T09:28:42.333Z,3.70
2022-12-07T09:31:26.041Z,3.68
2022-12-07T09:33:57.206Z,3.71
2022-12-07T09:36:25.064Z,3.72
2022-12-07T09:38:52.617Z,3.73
2022-12-07T09:41:20.968Z,3.88
2022-12-07T09:43:49.986Z,3.86
2022-12-07T09:46:20.226Z,3.99
2022-12-07T09:48:48.705Z,3.98
2022-12-07T09:51:23.165Z,3.94
2022-12-07T09:53:52.583Z,3.91
2022-12-07T09:56:21.054Z,3.91
2022-12-07T09:58:52.037Z,3.87
2022-12-07T10:01:22.005Z,3.86
2022-12-07T10:03:52.152Z,3.98
2022-12-07T10:06:19.973Z,4.08
2022-12-07T10:08:47.459Z,4.15
2022-12-07T10:11:14.972Z,4.20
2022-12-07T10:13:44.449Z,4.39
2022-12-07T10:16:36.580Z,4.51
2022-12-07T10:19:20.623Z,4.36
2022-12-07T10:22:02.022Z,4.28
2022-12-07T10:24:29.439Z,4.21
2022-12-07T10:26:56.757Z,4.16
2022-12-07T10:29:29.184Z,4.18
2022-12-07T10:32:00.509Z,4.38
2022-12-07T10:34:29.837Z,4.33
2022-12-07T10:37:15.951Z,4.33
2022-12-07T10:39:45.497Z,4.37
2022-12-07T10:42:20.975Z,4.37
2022-12-07T10:44:49.275Z,4.48
2022-12-07T10:47:30.763Z,4.86
2022-12-07T10:50:38.277Z,4.58
2022-12-07T10:53:21.147Z,4.61
2022-12-07T10:56:08.783Z,4.52
2022-12-07T10:58:53.351Z,4.59
2022-12-07T11:01:26.908Z,5.20
2022-12-07T11:04:14.871Z,5.13
2022-12-07T11:06:52.998Z,5.06
2022-12-07T11:10:08.040Z,4.96
2022-12-07T11:12:48.218Z,4.85
2022-12-07T11:15:23.166Z,4.81
2022-12-07T11:17:59.833Z,4.55
2022-12-07T11:20:42.604Z,4.50
2022-12-07T11:23:19.461Z,4.33
2022-12-07T11:25:56.409Z,4.34
2022-12-07T11:28:48.089Z,4.36
2022-12-07T11:31:29.031Z,4.62
2022-12-07T11:34:01.264Z,4.75
2022-12-07T11:36:38.538Z,4.85
2022-12-07T11:39:16.876Z,5.13
2022-12-07T11:41:47.526Z,5.11
2022-12-07T11:44:27.662Z,5.03
2022-12-07T11:47:00.983Z,4.93
2022-12-07T11:49:41.177Z,5.04
2022-12-07T11:52:19.391Z,5.06
2022-12-07T11:54:48.634Z,5.06
2022-12-07T11:57:21.789Z,5.14
2022-12-07T11:59:53.363Z,5.46
2022-12-07T12:02:27.218Z,5.49
2022-12-07T12:05:00.641Z,5.73
2022-12-07T12:10:21.923Z,5.93
2022-12-07T12:16:19.771Z,5.93
2022-12-07T12:19:04.348Z,6.15
2022-12-07T12:21:32.273Z,6.05
2022-12-07T12:24:05.051Z,5.95
2022-12-07T12:26:36.103Z,6.13
2022-12-07T12:29:06.237Z,6.01
2022-12-07T12:31:37.969Z,6.14
2022-12-07T12:34:20.941Z,5.80
2022-12-07T12:36:48.660Z,5.53
2022-12-07T12:39:19.443Z,5.56
2022-12-07T12:41:58.011Z,5.35
2022-12-07T12:44:41.617Z,5.27
2022-12-07T12:47:42.069Z,5.14
2022-12-07T12:50:17.835Z,4.28
2022-12-07T12:53:03.498Z,3.70
2022-12-07T12:56:10.354Z,3.58
2022-12-07T12:58:39.861Z,3.78
2022-12-07T13:01:41.036Z,4.01
2022-12-07T13:04:45.871Z,4.13
2022-12-07T13:07:34.389Z,4.08
2022-12-07T13:10:03.602Z,4.21
2022-12-07T13:12:32.925Z,4.26
2022-12-07T13:15:00.774Z,4.23
2022-12-07T13:17:57.706Z,4.20
2022-12-07T13:20:54.093Z,4.23
2022-12-07T13:23:25.017Z,4.33
2022-12-07T13:25:56.548Z,4.34
2022-12-07T13:28:37.748Z,4.40
2022-12-07T13:31:15.533Z,4.59
2022-12-07T13:33:45.093Z,4.57
2022-12-07T13:36:20.619Z,4.57
2022-12-07T13:38:57.324Z,4.64
2022-12-07T13:41:26.259Z,4.73
2022-12-07T13:44:03.273Z,4.72
2022-12-07T13:46:50.871Z,4.80
2022-12-07T13:49:24.751Z,4.81
2022-12-07T13:51:53.497Z,4.85
2022-12-07T13:54:21.533Z,4.87
2022-12-07T13:56:51.781Z,4.91
2022-12-07T13:59:23.629Z,4.89
2022-12-07T14:01:52.268Z,4.93
2022-12-07T14:04:35.703Z,4.88
2022-12-07T14:07:21.619Z,4.90
2022-12-07T14:09:57.518Z,4.71
2022-12-07T14:12:26.139Z,4.60
2022-12-07T14:14:56.355Z,4.51
2022-12-07T14:17:25.689Z,4.40
2022-12-07T14:19:55.463Z,4.40
2022-12-07T14:22:32.242Z,4.38
2022-12-07T14:25:16.747Z,4.31
2022-12-07T14:27:53.159Z,4.32
2022-12-07T14:30:22.475Z,4.26
2022-12-07T14:32:53.424Z,4.33
2022-12-07T14:35:21.091Z,4.24
2022-12-07T14:37:49.821Z,4.15
2022-12-07T14:40:19.214Z,3.98
2022-12-07T14:42:49.378Z,3.88
2022-12-07T14:45:18.558Z,3.80
2022-12-07T14:50:38.651Z,3.60
2022-12-07T14:53:28.468Z,3.53
2022-12-07T14:55:55.920Z,3.52
2022-12-07T14:58:23.207Z,3.54
2022-12-07T15:00:50.568Z,3.63
2022-12-07T15:03:19.278Z,3.60
2022-12-07T15:05:46.775Z,3.59
2022-12-07T15:08:14.358Z,3.56
2022-12-07T15:10:41.980Z,3.53
2022-12-07T15:13:09.652Z,3.56
2022-12-07T15:15:37.005Z,3.50
2022-12-07T15:18:04.706Z,3.40
2022-12-07T15:20:34.097Z,3.39
2022-12-07T15:23:01.418Z,3.35
2022-12-07T15:25:28.727Z,3.33
2022-12-07T15:27:55.958Z,3.27
2022-12-07T15:30:23.483Z,3.27
2022-12-07T15:32:51.172Z,3.26
2022-12-07T15:35:18.784Z,3.27
2022-12-07T15:37:47.708Z,3.19
2022-12-07T15:40:15.425Z,3.14
2022-12-07T15:42:42.866Z,3.09
2022-12-07T15:45:10.796Z,3.06
2022-12-07T15:48:18.386Z,3.04
2022-12-07T15:50:27.996Z,3.00
2022-12-07T15:52:56.739Z,2.99
2022-12-07T15:55:24.024Z,2.93
2022-12-07T15:57:51.319Z,2.95
2022-12-07T16:00:20.070Z,2.88
2022-12-07T16:02:47.463Z,2.81
2022-12-07T16:05:15.129Z,2.80
2022-12-07T16:07:42.593Z,2.79
2022-12-07T16:10:11.907Z,2.74
2022-12-07T16:12:39.382Z,2.67
2022-12-07T16:15:08.046Z,2.62
2022-12-07T16:17:35.365Z,2.59
2022-12-07T16:20:03.897Z,2.59
2022-12-07T16:22:31.231Z,2.63
2022-12-07T16:24:58.510Z,2.63
2022-12-07T16:27:27.219Z,2.72
2022-12-07T16:29:54.637Z,2.70
2022-12-07T16:32:21.887Z,2.70
2022-12-07T16:34:49.239Z,2.73
2022-12-07T16:37:16.511Z,2.73
2022-12-07T16:39:43.840Z,2.83
2022-12-07T16:42:11.123Z,2.87
2022-12-07T16:44:39.810Z,2.91
2022-12-07T16:47:07.301Z,2.90
2022-12-07T16:49:34.715Z,2.95
2022-12-07T16:52:19.167Z,3.03
2022-12-07T16:54:48.220Z,2.97
2022-12-07T16:57:21.929Z,2.95
2022-12-07T16:59:52.891Z,2.91
2022-12-07T17:02:20.551Z,2.85
2022-12-07T17:04:47.923Z,2.85
2022-12-07T17:07:15.179Z,2.85
2022-12-07T17:09:42.598Z,2.78
2022-12-07T17:12:10.039Z,2.69
2022-12-07T17:14:37.408Z,2.66
2022-12-07T17:17:06.104Z,2.57
2022-12-07T17:19:33.463Z,2.51
2022-12-07T17:22:00.781Z,2.50
2022-12-07T17:24:28.185Z,2.43
2022-12-07T17:26:55.436Z,2.35
2022-12-07T17:29:22.899Z,2.35
2022-12-07T17:31:51.975Z,2.30
2022-12-07T17:34:20.901Z,2.31
2022-12-07T17:36:48.268Z,2.45
2022-12-07T17:39:17.597Z,2.42
2022-12-07T17:41:45.113Z,2.42
2022-12-07T17:44:14.699Z,2.44
2022-12-07T17:46:42.521Z,2.40
2022-12-07T17:49:10.244Z,2.43
2022-12-07T17:51:38.979Z,2.34
2022-12-07T17:54:06.366Z,2.43
2022-12-07T17:56:33.661Z,2.38
2022-12-07T17:59:01.056Z,2.33
2022-12-07T18:01:34.262Z,2.38
2022-12-07T18:04:02.084Z,2.45
2022-12-07T18:06:29.364Z,2.38
2022-12-07T18:08:59.108Z,2.42
2022-12-07T18:11:27.065Z,2.49
2022-12-07T18:13:54.474Z,2.47
2022-12-07T18:16:24.396Z,2.55
2022-12-07T18:18:52.903Z,2.51
2022-12-07T18:21:25.254Z,2.57
2022-12-07T18:23:54.976Z,2.60
2022-12-07T18:26:25.968Z,2.67
2022-12-07T18:28:53.668Z,2.67
2022-12-07T18:31:21.247Z,2.71
2022-12-07T18:33:48.687Z,2.75
2022-12-07T18:36:18.473Z,2.68
2022-12-07T18:38:45.823Z,2.72
2022-12-07T18:41:14.546Z,2.77
2022-12-07T18:43:43.250Z,2.76
2022-12-07T18:46:11.416Z,2.83
2022-12-07T18:48:38.944Z,2.85
2022-12-07T18:51:07.397Z,2.86
2022-12-07T18:53:35.535Z,2.93
2022-12-07T18:56:04.939Z,2.75
2022-12-07T18:58:33.011Z,2.74
2022-12-07T19:01:01.960Z,2.67
2022-12-07T19:03:33.222Z,2.70
2022-12-07T19:06:06.248Z,2.66
2022-12-07T19:08:33.613Z,2.68
2022-12-07T19:11:00.892Z,2.70
2022-12-07T19:13:28.334Z,2.63
2022-12-07T19:15:55.607Z,2.66
2022-12-07T19:18:24.558Z,2.65
2022-12-07T19:20:51.882Z,2.64
2022-12-07T19:23:19.268Z,2.65
2022-12-07T19:25:46.526Z,2.65
2022-12-07T19:28:13.903Z,2.62
2022-12-07T19:30:41.207Z,2.60
2022-12-07T19:33:08.552Z,2.61
2022-12-07T19:35:37.231Z,2.58
2022-12-07T19:38:04.442Z,2.61
2022-12-07T19:40:31.718Z,2.58
2022-12-07T19:42:59.065Z,2.54
2022-12-07T19:45:26.420Z,2.56
2022-12-07T19:47:53.784Z,2.48
2022-12-07T19:50:21.199Z,2.52
2022-12-07T19:52:51.052Z,2.56
2022-12-07T19:55:18.649Z,2.50
2022-12-07T19:57:46.245Z,2.55
2022-12-07T20:00:14.567Z,2.56
2022-12-07T20:02:42.005Z,2.56
2022-12-07T20:05:10.302Z,2.52
2022-12-07T20:07:38.074Z,2.48
2022-12-07T20:10:08.688Z,2.50
2022-12-07T20:12:36.839Z,2.51
2022-12-07T20:15:05.067Z,2.50
2022-12-07T20:17:33.556Z,2.50
2022-12-07T20:20:00.901Z,2.53
2022-12-07T20:22:28.232Z,2.54
2022-12-07T20:24:55.519Z,2.59
2022-12-07T20:27:24.202Z,2.55
2022-12-07T20:29:51.488Z,2.53
2022-12-07T20:32:18.939Z,2.52
2022-12-07T20:34:46.455Z,2.58
2022-12-07T20:37:13.961Z,2.58
2022-12-07T20:39:41.304Z,2.54
2022-12-07T20:42:09.052Z,2.55
2022-12-07T20:44:38.073Z,2.53
2022-12-07T20:47:06.622Z,2.57
2022-12-07T20:49:36.549Z,2.63
2022-12-07T20:52:04.281Z,2.57
2022-12-07T20:54:31.735Z,2.57
2022-12-07T20:56:59.096Z,2.58
2022-12-07T20:59:26.375Z,2.54
2022-12-07T21:01:55.177Z,2.59
2022-12-07T21:04:22.602Z,2.60
2022-12-07T21:06:49.828Z,2.62
2022-12-07T21:09:16.998Z,2.59
2022-12-07T21:11:44.247Z,2.60
2022-12-07T21:14:11.456Z,2.60
2022-12-07T21:16:38.677Z,2.60
2022-12-07T21:19:07.394Z,2.71
2022-12-07T21:21:34.772Z,2.66
2022-12-07T21:24:03.958Z,2.66
2022-12-07T21:26:32.704Z,2.72
2022-12-07T21:29:00.193Z,2.78
2022-12-07T21:31:27.543Z,2.75
2022-12-07T21:33:55.018Z,2.79
2022-12-07T21:36:25.364Z,2.79
2022-12-07T21:38:52.915Z,2.78
2022-12-07T21:41:21.947Z,2.81
2022-12-07T21:43:50.156Z,2.81
2022-12-07T21:46:18.959Z,2.82
2022-12-07T21:48:50.112Z,2.81
2022-12-07T21:51:18.483Z,2.85
2022-12-07T21:53:47.940Z,2.83
2022-12-07T21:56:17.545Z,2.85
2022-12-07T21:58:45.379Z,2.85
2022-12-07T22:01:17.361Z,2.84
2022-12-07T22:03:46.094Z,2.87
2022-12-07T22:06:14.330Z,2.86
2022-12-07T22:08:42.587Z,2.90
2022-12-07T22:11:12.282Z,2.83
2022-12-07T22:13:40.597Z,2.80
2022-12-07T22:16:07.901Z,2.89
2022-12-07T22:18:35.264Z,2.86
2022-12-07T22:21:02.468Z,2.82
2022-12-07T22:23:31.805Z,2.85
2022-12-07T22:25:59.169Z,2.86
2022-12-07T22:28:27.837Z,2.80
2022-12-07T22:30:55.110Z,2.80
2022-12-07T22:33:22.435Z,2.75
2022-12-07T22:35:52.757Z,2.78
2022-12-07T22:38:20.010Z,2.72
2022-12-07T22:40:47.339Z,2.73
2022-12-07T22:43:14.770Z,2.69
2022-12-07T22:45:43.420Z,2.67
2022-12-07T22:48:10.794Z,2.72
2022-12-07T22:50:38.065Z,2.66
2022-12-07T22:53:05.356Z,2.71
2022-12-07T22:55:32.644Z,2.71
2022-12-07T22:58:00.033Z,2.69
2022-12-07T23:00:27.308Z,2.70
2022-12-07T23:02:56.095Z,2.73
2022-12-07T23:05:23.361Z,2.70
2022-12-07T23:07:51.082Z,2.76
2022-12-07T23:10:18.564Z,2.79
2022-12-07T23:12:45.881Z,2.81
2022-12-07T23:15:13.175Z,2.81
2022-12-07T23:17:40.535Z,2.81
2022-12-07T23:20:10.111Z,2.82
2022-12-07T23:22:37.388Z,2.87
2022-12-07T23:25:05.848Z,2.84
2022-12-07T23:27:34.085Z,2.86
2022-12-07T23:30:01.515Z,2.83
2022-12-07T23:32:28.854Z,2.76
2022-12-07T23:34:56.097Z,2.75
2022-12-07T23:37:24.759Z,2.76
2022-12-07T23:39:52.088Z,2.74
2022-12-07T23:42:19.447Z,2.70
2022-12-07T23:44:46.721Z,2.63
2022-12-07T23:47:14.144Z,2.63
2022-12-07T23:49:41.472Z,2.55
2022-12-07T23:52:08.766Z,2.52
2022-12-07T23:54:37.405Z,2.53
2022-12-07T23:57:04.758Z,2.48
2022-12-07T23:59:32.035Z,2.50
